Time;durP1;ratioP1;P1;durP2;ratioP2;P2;SDS_P1;SDS_P2;PMS_P1;PMS_P2;Temp;Humidity;BMP_temperature;BMP_pressure;BME280_temperature;BME280_humidity;BME280_pressure;Samples;Min_cycle;Max_cycle;Signal;HPM_P1;HPM_P2
2022/03/22 00:02:15;;;;;;;56.15;31.40;;;4.00;99.90;;;;;;4963245;28;20314;-91
2022/03/22 00:04:46;;;;;;;57.15;32.38;;;4.00;99.90;;;;;;4956319;28;20050;-89
2022/03/22 00:07:12;;;;;;;58.53;34.08;;;3.90;99.90;;;;;;4961942;28;20108;-90
2022/03/22 00:09:38;;;;;;;62.60;34.20;;;3.90;99.90;;;;;;4950793;28;20049;-88
2022/03/22 00:12:05;;;;;;;57.08;32.33;;;3.90;99.90;;;;;;4970906;28;20051;-90
2022/03/22 00:14:33;;;;;;;62.30;32.90;;;3.90;99.90;;;;;;4954695;28;20043;-91
2022/03/22 00:17:02;;;;;;;55.75;33.28;;;3.90;99.90;;;;;;4955442;28;20112;-90
2022/03/22 00:19:28;;;;;;;54.10;31.55;;;3.80;99.90;;;;;;4967516;28;20053;-89
2022/03/22 00:21:56;;;;;;;56.28;31.70;;;3.90;99.90;;;;;;4976048;28;20393;-90
2022/03/22 00:24:24;;;;;;;55.50;32.38;;;3.80;99.90;;;;;;4968831;28;20060;-91
2022/03/22 00:26:53;;;;;;;60.08;33.17;;;3.80;99.90;;;;;;4959420;28;20050;-91
2022/03/22 00:29:26;;;;;;;60.55;34.22;;;3.80;99.90;;;;;;4968284;28;20059;-90
2022/03/22 00:31:56;;;;;;;62.08;33.88;;;3.80;99.90;;;;;;4975652;28;20070;-90
2022/03/22 00:34:24;;;;;;;61.25;32.95;;;3.80;99.90;;;;;;4991188;28;20342;-90
2022/03/22 00:36:56;;;;;;;62.72;34.42;;;3.80;99.90;;;;;;4965633;28;20514;-90
2022/03/22 00:39:24;;;;;;;62.72;36.17;;;3.70;99.90;;;;;;4973136;28;20050;-90
2022/03/22 00:41:53;;;;;;;56.22;32.53;;;3.70;99.90;;;;;;4976273;28;20405;-91
2022/03/22 00:44:26;;;;;;;55.45;32.67;;;3.60;99.90;;;;;;4987164;28;20058;-91
2022/03/22 00:46:55;;;;;;;55.90;30.92;;;3.60;99.90;;;;;;4972878;28;20039;-90
2022/03/22 00:49:23;;;;;;;56.70;31.05;;;3.50;99.90;;;;;;4978081;28;20073;-92
2022/03/22 00:51:54;;;;;;;62.55;34.95;;;3.60;99.90;;;;;;4969242;28;20047;-92
2022/03/22 00:54:25;;;;;;;63.47;33.80;;;3.60;99.90;;;;;;4959813;28;20082;-90
2022/03/22 00:56:54;;;;;;;59.10;33.33;;;3.60;99.90;;;;;;4976299;28;20042;-90
2022/03/22 01:02:06;;;;;;;65.03;32.70;;;3.40;99.90;;;;;;4978905;28;20119;-90
2022/03/22 01:04:37;;;;;;;58.22;32.42;;;3.50;99.90;;;;;;4990562;28;20050;-91
2022/03/22 01:07:04;;;;;;;56.65;32.80;;;3.50;99.90;;;;;;4974887;28;20106;-88
2022/03/22 01:09:32;;;;;;;52.28;32.45;;;3.50;99.90;;;;;;4967801;28;20050;-91
2022/03/22 01:11:58;;;;;;;55.78;32.47;;;3.50;99.90;;;;;;4981962;28;20042;-90
2022/03/22 01:14:28;;;;;;;57.25;32.92;;;3.40;99.90;;;;;;4989053;28;20050;-90
2022/03/22 01:16:56;;;;;;;54.20;31.52;;;3.40;99.90;;;;;;4978744;28;20053;-91
2022/03/22 01:19:27;;;;;;;58.35;32.90;;;3.40;99.90;;;;;;4970088;28;20046;-91
2022/03/22 01:21:55;;;;;;;57.28;32.42;;;3.40;99.90;;;;;;4989458;28;20043;-91
2022/03/22 01:24:20;;;;;;;55.97;31.60;;;3.30;99.90;;;;;;4975632;28;20051;-90
2022/03/22 01:26:46;;;;;;;57.92;31.90;;;3.40;99.90;;;;;;4984066;28;20046;-90
2022/03/22 01:29:14;;;;;;;57.25;32.55;;;3.40;99.90;;;;;;4969068;28;20050;-90
2022/03/22 01:31:45;;;;;;;56.22;33.08;;;3.40;99.90;;;;;;4979005;28;20049;-89
2022/03/22 01:34:11;;;;;;;53.38;31.50;;;3.30;99.90;;;;;;4970883;28;20053;-91
2022/03/22 01:36:40;;;;;;;52.97;30.67;;;3.40;99.90;;;;;;4963767;28;20053;-88
2022/03/22 01:39:06;;;;;;;65.88;34.30;;;3.30;99.90;;;;;;4948715;28;20055;-90
2022/03/22 01:41:33;;;;;;;62.65;34.65;;;3.30;99.90;;;;;;4990118;28;20149;-90
2022/03/22 01:43:59;;;;;;;60.15;34.45;;;3.30;99.90;;;;;;4972538;28;20051;-90
2022/03/22 01:46:25;;;;;;;60.47;33.08;;;3.30;99.90;;;;;;4982361;28;20046;-91
2022/03/22 01:48:53;;;;;;;53.75;30.83;;;3.30;99.90;;;;;;4990157;28;20058;-92
2022/03/22 01:51:31;;;;;;;55.60;31.23;;;3.30;99.90;;;;;;4989934;28;20053;-92
2022/03/22 01:53:58;;;;;;;53.22;31.08;;;3.30;99.90;;;;;;4978621;28;20068;-92
2022/03/22 01:56:26;;;;;;;54.15;31.02;;;3.20;99.90;;;;;;4964657;28;20047;-89
2022/03/22 01:58:55;;;;;;;57.47;31.35;;;3.40;99.90;;;;;;4970695;28;20049;-90
2022/03/22 02:06:54;;;;;;;51.50;29.90;;;3.30;99.90;;;;;;4977728;28;20113;-92
2022/03/22 02:09:29;;;;;;;52.55;30.38;;;3.30;99.90;;;;;;4988306;28;20752;-90
2022/03/22 02:11:55;;;;;;;53.80;30.52;;;3.30;99.90;;;;;;4978325;28;20050;-90
2022/03/22 02:14:24;;;;;;;52.90;29.67;;;3.30;99.90;;;;;;4965532;28;20062;-91
2022/03/22 02:16:54;;;;;;;54.00;30.23;;;3.30;99.90;;;;;;4973434;28;20046;-93
2022/03/22 02:19:23;;;;;;;48.00;28.95;;;3.30;99.90;;;;;;4974567;28;20191;-89
2022/03/22 02:21:58;;;;;;;49.88;28.95;;;3.20;99.90;;;;;;4972797;28;20059;-93
2022/03/22 02:24:24;;;;;;;52.08;28.98;;;3.20;99.90;;;;;;4978652;28;20098;-92
2022/03/22 02:26:52;;;;;;;56.33;30.15;;;3.20;99.90;;;;;;4961612;28;20050;-91
2022/03/22 02:29:20;;;;;;;55.60;30.92;;;3.20;99.90;;;;;;4960349;28;20497;-91
2022/03/22 02:31:46;;;;;;;57.65;31.30;;;3.20;99.90;;;;;;4941492;28;20099;-87
2022/03/22 02:34:15;;;;;;;49.30;28.08;;;3.10;99.90;;;;;;4959722;28;20115;-89
2022/03/22 02:36:44;;;;;;;53.90;29.67;;;3.00;99.90;;;;;;4972380;28;20054;-88
2022/03/22 02:39:16;;;;;;;52.20;29.88;;;3.10;99.90;;;;;;4965246;28;20077;-90
2022/03/22 02:41:45;;;;;;;60.92;31.73;;;3.20;99.90;;;;;;4974771;28;20424;-89
2022/03/22 02:44:11;;;;;;;60.90;34.03;;;3.20;99.90;;;;;;4959429;28;20057;-89
2022/03/22 02:46:37;;;;;;;58.63;31.65;;;3.20;99.90;;;;;;4977688;28;20054;-89
2022/03/22 02:49:06;;;;;;;57.13;31.33;;;3.20;99.90;;;;;;4962386;28;20069;-89
2022/03/22 02:51:34;;;;;;;54.55;31.58;;;3.20;99.90;;;;;;4971405;28;20054;-90
2022/03/22 02:54:04;;;;;;;59.13;33.22;;;3.20;99.90;;;;;;4973407;28;20046;-90
2022/03/22 02:56:30;;;;;;;64.63;34.67;;;3.10;99.90;;;;;;4959910;28;20046;-90
2022/03/22 02:58:57;;;;;;;58.50;31.23;;;3.10;99.90;;;;;;4973025;28;20055;-89
2022/03/22 03:01:25;;;;;;;62.67;32.75;;;3.10;99.90;;;;;;4960171;28;20467;-89
2022/03/22 03:03:54;;;;;;;54.42;31.48;;;3.00;99.90;;;;;;4988567;28;20042;-92
2022/03/22 03:06:25;;;;;;;62.00;33.20;;;3.00;99.90;;;;;;4991412;28;20476;-91
2022/03/22 03:08:51;;;;;;;63.63;33.00;;;2.90;99.90;;;;;;4950489;28;20042;-91
2022/03/22 03:11:26;;;;;;;54.55;30.52;;;2.90;99.90;;;;;;4984691;28;20445;-90
2022/03/22 03:16:41;;;;;;;68.30;30.60;;;2.90;99.90;;;;;;4991325;28;20046;-92
2022/03/22 03:19:19;;;;;;;56.55;31.95;;;2.80;99.90;;;;;;4954422;28;20113;-92
2022/03/22 03:22:04;;;;;;;60.22;32.15;;;2.90;99.90;;;;;;4995262;28;20058;-87
2022/03/22 03:24:38;;;;;;;64.80;33.30;;;2.80;99.90;;;;;;4975782;28;20074;-90
2022/03/22 03:27:04;;;;;;;62.33;32.53;;;2.80;99.90;;;;;;4987536;28;20054;-91
2022/03/22 03:29:31;;;;;;;57.50;32.45;;;2.80;99.90;;;;;;4979392;28;20180;-91
2022/03/22 03:32:08;;;;;;;62.03;32.90;;;2.80;99.90;;;;;;4981865;28;20408;-88
2022/03/22 03:34:37;;;;;;;59.05;32.70;;;2.90;99.90;;;;;;4968285;28;20409;-89
2022/03/22 03:37:06;;;;;;;58.83;31.80;;;2.80;99.90;;;;;;4976663;28;20415;-91
2022/03/22 03:39:38;;;;;;;58.72;33.55;;;2.90;99.90;;;;;;4985002;28;20097;-91
2022/03/22 03:42:07;;;;;;;54.63;32.05;;;2.80;99.90;;;;;;4965114;28;20050;-89
2022/03/22 03:47:26;;;;;;;56.10;31.83;;;2.80;99.90;;;;;;4986817;28;20244;-89
2022/03/22 03:49:56;;;;;;;54.75;32.38;;;2.80;99.90;;;;;;4971221;28;20051;-89
2022/03/22 03:52:26;;;;;;;66.85;35.03;;;2.80;99.90;;;;;;4983705;28;20054;-90
2022/03/22 03:54:56;;;;;;;54.45;32.03;;;2.80;99.90;;;;;;4969121;28;20158;-86
2022/03/22 03:57:24;;;;;;;59.28;32.58;;;2.80;99.90;;;;;;5003271;28;20050;-87
2022/03/22 03:59:54;;;;;;;58.22;33.13;;;2.70;99.90;;;;;;4964918;28;20049;-88
2022/03/22 04:02:23;;;;;;;65.38;34.25;;;2.70;99.90;;;;;;4970206;28;20081;-91
2022/03/22 04:05:01;;;;;;;59.70;32.38;;;2.70;99.90;;;;;;4992778;28;20455;-90
2022/03/22 04:07:27;;;;;;;59.75;32.97;;;2.70;99.90;;;;;;4983211;28;20042;-91
2022/03/22 04:09:56;;;;;;;59.47;31.70;;;2.70;99.90;;;;;;4976613;28;20046;-88
2022/03/22 04:12:26;;;;;;;60.28;34.25;;;2.70;99.90;;;;;;4970988;28;20055;-89
2022/03/22 04:14:54;;;;;;;62.95;35.58;;;2.60;99.90;;;;;;4980842;28;20102;-88
2022/03/22 04:17:28;;;;;;;65.75;36.70;;;2.60;99.90;;;;;;4972327;28;20042;-90
2022/03/22 04:19:56;;;;;;;62.00;32.97;;;2.70;99.90;;;;;;4985963;28;20089;-87
2022/03/22 04:22:25;;;;;;;61.20;34.58;;;2.70;99.90;;;;;;4963971;28;20038;-89
2022/03/22 04:24:56;;;;;;;61.35;35.00;;;2.70;99.90;;;;;;4994673;28;20121;-92
2022/03/22 04:32:50;;;;;;;60.88;33.00;;;2.70;99.90;;;;;;4979960;28;20050;-91
2022/03/22 04:35:18;;;;;;;60.90;34.55;;;2.60;99.90;;;;;;4975014;28;20046;-90
2022/03/22 04:37:49;;;;;;;61.10;34.67;;;2.70;99.90;;;;;;4963392;28;20110;-90
2022/03/22 04:40:15;;;;;;;60.00;34.80;;;2.70;99.90;;;;;;4991637;28;20136;-91
2022/03/22 04:42:47;;;;;;;60.92;33.65;;;2.60;99.90;;;;;;4980315;28;20055;-88
2022/03/22 04:45:26;;;;;;;61.65;35.63;;;2.60;99.90;;;;;;4974557;28;20057;-90
2022/03/22 04:47:57;;;;;;;60.53;34.15;;;2.50;99.90;;;;;;5000566;28;20049;-92
2022/03/22 04:50:26;;;;;;;62.67;34.10;;;2.60;99.90;;;;;;4987309;28;20054;-88
2022/03/22 04:58:57;;;;;;;63.28;34.90;;;2.40;99.90;;;;;;4968963;28;20057;-91
2022/03/22 05:01:28;;;;;;;64.05;34.90;;;2.50;99.90;;;;;;4965612;29;20062;-89
2022/03/22 05:03:57;;;;;;;59.42;34.50;;;2.50;99.90;;;;;;4968671;28;20039;-90
2022/03/22 05:06:28;;;;;;;66.93;35.15;;;2.50;99.90;;;;;;4975913;28;20046;-88
2022/03/22 05:08:57;;;;;;;60.50;33.05;;;2.60;99.90;;;;;;4984446;28;20094;-90
2022/03/22 05:11:26;;;;;;;63.30;35.72;;;2.60;99.90;;;;;;5002339;28;20042;-89
2022/03/22 05:13:54;;;;;;;64.18;35.45;;;2.60;99.90;;;;;;4983962;28;20081;-90
2022/03/22 05:16:21;;;;;;;60.03;34.92;;;2.70;99.90;;;;;;4965617;28;20054;-91
2022/03/22 05:18:55;;;;;;;66.03;34.08;;;2.70;99.90;;;;;;4983939;28;20451;-92
2022/03/22 05:21:26;;;;;;;65.43;37.30;;;2.70;99.90;;;;;;4964088;28;20552;-92
2022/03/22 05:23:55;;;;;;;59.80;33.83;;;2.70;99.90;;;;;;4987764;28;20042;-92
2022/03/22 05:26:28;;;;;;;61.17;35.17;;;2.70;99.90;;;;;;4998474;28;20042;-93
2022/03/22 05:28:56;;;;;;;65.00;34.97;;;2.60;99.90;;;;;;4967973;28;20042;-90
2022/03/22 05:31:22;;;;;;;61.22;35.00;;;2.60;99.90;;;;;;4958814;28;20665;-88
2022/03/22 05:33:49;;;;;;;60.85;34.83;;;2.70;99.90;;;;;;4976318;28;20077;-92
2022/03/22 05:36:16;;;;;;;59.05;34.53;;;2.60;99.90;;;;;;4973846;28;20069;-91
2022/03/22 05:38:42;;;;;;;64.03;34.22;;;2.60;99.90;;;;;;4973680;28;20073;-91
2022/03/22 05:41:08;;;;;;;65.22;34.50;;;2.60;99.90;;;;;;4964761;28;20046;-90
2022/03/22 05:43:37;;;;;;;62.80;35.47;;;2.50;99.90;;;;;;4992716;28;20062;-92
2022/03/22 05:46:09;;;;;;;70.43;38.78;;;2.60;99.90;;;;;;4985456;28;20055;-88
2022/03/22 05:48:38;;;;;;;62.72;36.35;;;2.50;99.90;;;;;;4987562;28;20115;-89
2022/03/22 05:51:04;;;;;;;66.95;36.10;;;2.60;99.90;;;;;;4957955;28;20066;-91
2022/03/22 05:53:35;;;;;;;61.95;36.53;;;2.60;99.90;;;;;;4972830;28;20054;-92
2022/03/22 05:56:09;;;;;;;67.85;37.15;;;2.60;99.90;;;;;;4976137;28;20054;-90
2022/03/22 05:58:35;;;;;;;69.38;37.05;;;2.70;99.90;;;;;;4969060;28;20049;-93
2022/03/22 06:01:19;;;;;;;60.88;36.30;;;2.70;99.90;;;;;;4970864;28;20050;-88
2022/03/22 06:03:47;;;;;;;59.92;34.83;;;2.80;99.90;;;;;;4976976;28;20049;-92
2022/03/22 06:06:19;;;;;;;68.63;36.70;;;2.80;99.90;;;;;;4980371;28;20070;-92
2022/03/22 06:08:45;;;;;;;64.70;36.50;;;2.80;99.90;;;;;;4951707;28;20047;-90
2022/03/22 06:11:17;;;;;;;67.00;37.72;;;2.90;99.90;;;;;;4946751;28;20050;-89
2022/03/22 06:13:43;;;;;;;66.32;36.67;;;2.90;99.90;;;;;;4964436;28;20153;-85
2022/03/22 06:16:08;;;;;;;68.47;38.22;;;2.90;99.90;;;;;;4987836;28;20085;-89
2022/03/22 06:18:37;;;;;;;60.17;34.17;;;2.90;99.90;;;;;;4954023;28;20046;-91
2022/03/22 06:21:03;;;;;;;66.18;37.72;;;3.00;99.90;;;;;;4990777;28;20058;-87
2022/03/22 06:23:29;;;;;;;66.75;36.88;;;3.00;99.90;;;;;;4969524;28;20050;-91
2022/03/22 06:25:55;;;;;;;67.13;37.13;;;3.00;99.90;;;;;;4979026;28;20043;-91
2022/03/22 06:28:26;;;;;;;64.38;35.92;;;3.10;99.90;;;;;;4968745;28;20514;-89
2022/03/22 06:30:55;;;;;;;62.95;37.08;;;3.10;99.90;;;;;;4962060;28;20108;-91
2022/03/22 06:33:22;;;;;;;69.35;38.53;;;3.20;99.90;;;;;;4965898;28;20242;-92
2022/03/22 06:35:48;;;;;;;69.57;37.80;;;3.30;99.90;;;;;;4963190;28;20074;-90
2022/03/22 06:38:14;;;;;;;66.43;38.30;;;3.30;99.90;;;;;;4957865;28;20051;-90
2022/03/22 06:40:40;;;;;;;71.72;38.95;;;3.40;99.90;;;;;;4956907;28;20042;-92
2022/03/22 06:43:09;;;;;;;69.10;37.50;;;3.50;99.90;;;;;;4954737;28;20057;-90
2022/03/22 06:45:35;;;;;;;72.45;39.67;;;3.60;99.90;;;;;;4972795;28;20043;-91
2022/03/22 06:48:01;;;;;;;64.65;37.72;;;3.70;99.90;;;;;;4981301;28;20047;-88
2022/03/22 06:50:27;;;;;;;65.93;37.35;;;3.80;99.90;;;;;;4974012;28;20073;-90
2022/03/22 06:52:53;;;;;;;64.00;38.35;;;3.90;99.90;;;;;;4970937;28;20087;-87
2022/03/22 06:55:22;;;;;;;61.70;35.95;;;4.00;99.90;;;;;;4973047;28;20050;-89
2022/03/22 06:57:51;;;;;;;65.38;36.65;;;4.20;99.90;;;;;;4979438;28;20057;-89
2022/03/22 07:00:20;;;;;;;66.88;37.47;;;4.30;99.90;;;;;;4972341;28;20050;-88
2022/03/22 07:02:48;;;;;;;70.78;38.85;;;4.50;99.90;;;;;;4978964;28;20125;-91
2022/03/22 07:05:17;;;;;;;61.17;37.28;;;4.60;99.90;;;;;;4960178;28;20137;-91
2022/03/22 07:07:48;;;;;;;61.75;35.83;;;4.80;99.90;;;;;;4960936;28;20054;-89
2022/03/22 07:10:19;;;;;;;60.22;34.90;;;4.90;99.90;;;;;;4955280;28;20062;-91
2022/03/22 07:13:01;;;;;;;60.22;35.63;;;5.10;99.90;;;;;;4960809;28;20050;-91
2022/03/22 07:15:37;;;;;;;63.17;35.13;;;5.20;99.90;;;;;;4961665;28;20054;-91
2022/03/22 07:18:17;;;;;;;;;;;;;;;;;;;;;
2022/03/22 07:20:48;;;;;;;59.75;34.28;;;5.30;99.90;;;;;;4991236;28;20065;-90
2022/03/22 07:23:15;;;;;;;59.83;34.40;;;5.50;99.90;;;;;;4944303;28;20477;-91
2022/03/22 07:25:41;;;;;;;57.00;34.15;;;5.60;99.90;;;;;;4955709;28;20039;-87
2022/03/22 07:28:09;;;;;;;57.53;34.10;;;5.80;99.90;;;;;;4953983;28;20097;-88
2022/03/22 07:30:38;;;;;;;56.80;34.85;;;5.90;99.90;;;;;;4968558;28;20506;-86
2022/03/22 07:33:06;;;;;;;56.72;33.30;;;6.10;99.90;;;;;;4954290;28;20401;-87
2022/03/22 07:35:42;;;;;;;54.58;34.55;;;6.30;99.90;;;;;;4968702;28;20082;-88
2022/03/22 07:38:08;;;;;;;55.53;33.20;;;6.40;99.90;;;;;;4951819;28;20499;-87
2022/03/22 07:40:39;;;;;;;52.33;32.05;;;6.50;99.90;;;;;;4970158;28;20133;-88
2022/03/22 07:43:05;;;;;;;53.63;33.72;;;6.60;99.90;;;;;;4955793;28;20126;-87
2022/03/22 07:45:31;;;;;;;54.05;30.98;;;6.80;99.90;;;;;;4965353;28;20070;-89
2022/03/22 07:47:59;;;;;;;53.55;32.60;;;6.90;99.90;;;;;;4950618;28;20500;-88
2022/03/22 07:53:10;;;;;;;51.20;31.50;;;7.20;99.90;;;;;;4961401;28;20059;-88
2022/03/22 07:55:41;;;;;;;50.53;31.38;;;7.30;99.90;;;;;;4935508;28;20039;-88
2022/03/22 07:58:11;;;;;;;51.95;31.52;;;7.50;99.90;;;;;;4954454;28;20050;-87
2022/03/22 08:00:39;;;;;;;51.05;31.90;;;7.60;99.90;;;;;;4939049;28;20157;-87
2022/03/22 08:03:10;;;;;;;49.60;31.05;;;7.80;99.90;;;;;;4948911;28;20047;-87
2022/03/22 08:05:40;;;;;;;50.55;30.88;;;7.90;99.90;;;;;;4968435;28;20042;-88
2022/03/22 08:08:08;;;;;;;47.95;30.35;;;8.10;99.90;;;;;;4969955;28;20081;-89
2022/03/22 08:10:44;;;;;;;;;;;;;;;;;;;;;
2022/03/22 08:13:11;;;;;;;;;;;8.40;99.90;;;;;;4971027;28;20118;-88
2022/03/22 08:15:38;;;;;;;46.25;29.45;;;8.60;99.90;;;;;;4964647;28;19925;-89
2022/03/22 08:18:20;;;;;;;46.05;29.17;;;8.70;99.90;;;;;;4957526;28;20060;-87
2022/03/22 08:20:48;;;;;;;44.17;27.48;;;8.90;99.90;;;;;;4970083;28;20492;-88
2022/03/22 08:23:17;;;;;;;41.33;26.05;;;9.10;99.90;;;;;;4946218;28;20055;-90
2022/03/22 08:25:50;;;;;;;44.10;26.15;;;9.30;99.00;;;;;;4954569;28;20117;-89
2022/03/22 08:28:20;;;;;;;44.53;26.90;;;9.50;98.60;;;;;;4955761;28;20389;-90
2022/03/22 08:30:48;;;;;;;42.45;26.02;;;9.70;97.40;;;;;;4952857;28;20039;-90
2022/03/22 08:33:21;;;;;;;40.50;25.05;;;9.90;96.20;;;;;;4955527;28;20113;-91
2022/03/22 08:35:52;;;;;;;42.28;25.30;;;10.10;94.60;;;;;;4971670;28;20082;-89
2022/03/22 08:38:20;;;;;;;38.30;25.45;;;10.30;94.60;;;;;;4970039;28;20082;-90
2022/03/22 08:40:51;;;;;;;39.50;24.85;;;10.40;94.30;;;;;;4957811;28;20039;-90
2022/03/22 08:43:21;;;;;;;41.80;24.92;;;10.50;93.40;;;;;;4959205;28;20057;-90
2022/03/22 08:45:49;;;;;;;41.47;24.20;;;10.70;92.80;;;;;;4974321;28;20058;-90
2022/03/22 08:48:34;;;;;;;37.92;24.75;;;10.80;92.00;;;;;;4958104;28;20408;-90
2022/03/22 08:51:01;;;;;;;39.65;25.30;;;10.90;91.80;;;;;;4974302;28;20468;-89
2022/03/22 08:53:30;;;;;;;41.28;25.05;;;11.00;91.30;;;;;;4958882;28;20051;-89
2022/03/22 08:56:03;;;;;;;40.38;24.23;;;11.20;90.70;;;;;;4978254;28;20078;-90
2022/03/22 08:58:39;;;;;;;37.83;24.92;;;11.30;90.30;;;;;;4959878;28;20154;-90
2022/03/22 09:01:07;;;;;;;38.10;23.85;;;11.40;89.70;;;;;;4971773;28;20079;-89
2022/03/22 09:03:38;;;;;;;37.08;23.90;;;11.60;88.20;;;;;;4960042;28;20058;-90
2022/03/22 09:09:01;;;;;;;34.92;22.58;;;12.00;84.50;;;;;;4971359;28;20053;-91
2022/03/22 09:11:31;;;;;;;36.97;22.80;;;12.20;82.90;;;;;;4941621;28;20081;-90
2022/03/22 09:14:00;;;;;;;46.30;22.02;;;12.40;80.90;;;;;;4958637;28;20050;-88
2022/03/22 09:16:28;;;;;;;33.28;21.10;;;12.60;79.00;;;;;;4951535;28;20051;-91
2022/03/22 09:18:57;;;;;;;33.45;20.35;;;12.80;75.70;;;;;;4974869;28;20062;-89
2022/03/22 09:21:31;;;;;;;33.95;21.38;;;13.00;74.70;;;;;;4974440;28;20054;-89
2022/03/22 09:23:57;;;;;;;32.03;21.58;;;13.10;73.90;;;;;;4961671;28;20039;-89
2022/03/22 09:26:32;;;;;;;34.92;21.45;;;13.20;73.50;;;;;;4958119;28;20046;-89
2022/03/22 09:29:05;;;;;;;36.50;20.88;;;13.30;72.30;;;;;;4959134;28;20104;-89
2022/03/22 09:31:31;;;;;;;34.40;21.60;;;13.50;70.30;;;;;;4949786;28;20113;-89
2022/03/22 09:34:00;;;;;;;31.15;21.10;;;13.80;68.80;;;;;;4960425;28;20047;-91
2022/03/22 09:36:44;;;;;;;;;;;;;;;;;;;;;
2022/03/22 09:39:12;;;;;;;34.65;20.90;;;14.00;69.10;;;;;;4966216;28;20077;-91
2022/03/22 09:41:46;;;;;;;35.28;21.52;;;14.10;68.00;;;;;;4957742;28;20056;-91
2022/03/22 09:44:12;;;;;;;31.42;20.98;;;14.40;66.80;;;;;;4975906;28;20054;-90
2022/03/22 09:46:45;;;;;;;30.45;21.63;;;14.70;65.90;;;;;;4958361;28;20456;-90
2022/03/22 09:49:11;;;;;;;31.48;21.70;;;15.00;65.10;;;;;;4955733;28;20072;-89
2022/03/22 09:51:48;;;;;;;30.67;20.95;;;15.30;63.90;;;;;;4958684;28;20054;-87
2022/03/22 09:54:23;;;;;;;32.13;21.63;;;15.50;61.40;;;;;;4958686;28;20093;-87
2022/03/22 09:56:51;;;;;;;34.58;22.10;;;15.90;60.10;;;;;;4946598;28;20051;-91
2022/03/22 09:59:20;;;;;;;35.15;22.27;;;16.10;60.20;;;;;;4964700;28;20034;-90
2022/03/22 10:01:59;;;;;;;29.27;20.13;;;16.60;59.90;;;;;;4975735;28;20059;-92
2022/03/22 10:04:54;;;;;;;32.70;21.83;;;17.20;58.10;;;;;;4976243;28;20117;-90
2022/03/22 10:07:22;;;;;;;28.13;20.90;;;17.90;54.40;;;;;;4950368;28;20042;-91
2022/03/22 10:09:58;;;;;;;30.25;19.90;;;18.60;53.10;;;;;;4958397;28;20086;-91
2022/03/22 10:12:31;;;;;;;30.65;20.67;;;19.30;53.30;;;;;;4973619;28;20571;-91
2022/03/22 10:15:11;;;;;;;38.58;20.23;;;20.00;50.80;;;;;;4974414;28;20122;-91
2022/03/22 10:17:40;;;;;;;29.10;20.35;;;20.80;49.00;;;;;;4991379;28;20046;-91
2022/03/22 10:20:20;;;;;;;28.38;19.25;;;21.30;45.80;;;;;;4956038;28;20046;-91
2022/03/22 10:23:10;;;;;;;27.73;20.15;;;21.90;45.60;;;;;;4987132;28;20484;-90
2022/03/22 10:25:41;;;;;;;31.42;19.67;;;22.60;45.40;;;;;;4953099;28;20051;-90
2022/03/22 10:28:09;;;;;;;35.97;20.55;;;23.10;42.70;;;;;;4971060;28;20073;-90
2022/03/22 10:30:40;;;;;;;31.25;20.13;;;23.50;41.30;;;;;;4972222;28;20042;-90
2022/03/22 10:33:09;;;;;;;31.83;20.20;;;23.60;38.70;;;;;;4985338;28;20069;-91
2022/03/22 10:35:41;;;;;;;29.33;20.20;;;23.90;39.40;;;;;;4949215;28;20054;-91
2022/03/22 10:38:09;;;;;;;32.53;20.48;;;24.20;39.10;;;;;;4976085;28;20077;-91
2022/03/22 10:40:44;;;;;;;29.58;20.75;;;24.70;39.20;;;;;;4975501;28;20046;-91
2022/03/22 10:43:18;;;;;;;26.65;19.75;;;25.20;37.30;;;;;;4976308;28;20484;-92
2022/03/22 10:45:49;;;;;;;27.65;20.13;;;25.50;35.60;;;;;;4973748;28;20270;-91
2022/03/22 10:48:19;;;;;;;28.80;20.23;;;25.70;35.60;;;;;;4956779;28;20046;-91
2022/03/22 10:50:52;;;;;;;26.75;20.10;;;25.90;35.00;;;;;;4983057;28;20085;-91
2022/03/22 10:53:21;;;;;;;24.63;19.55;;;26.20;34.70;;;;;;4964572;28;20058;-91
2022/03/22 10:55:50;;;;;;;25.55;19.85;;;26.40;34.50;;;;;;4949952;28;20046;-91
2022/03/22 10:58:26;;;;;;;25.98;19.67;;;26.70;33.50;;;;;;5004126;28;20061;-90
2022/03/22 11:00:52;;;;;;;27.60;19.42;;;27.00;33.50;;;;;;4968643;28;20030;-90
2022/03/22 11:03:33;;;;;;;;;;;;;;;;;;;;;
2022/03/22 11:06:03;;;;;;;28.70;19.40;;;27.40;32.00;;;;;;4979524;28;20049;-90
2022/03/22 11:08:29;;;;;;;28.05;20.52;;;27.70;31.90;;;;;;4977005;28;20071;-89
2022/03/22 11:10:57;;;;;;;25.50;19.67;;;27.90;30.90;;;;;;4969669;28;20065;-91
2022/03/22 11:13:32;;;;;;;29.63;20.55;;;27.90;30.20;;;;;;4958264;28;20054;-89
2022/03/22 11:16:01;;;;;;;30.63;19.98;;;28.10;30.00;;;;;;4957868;28;20085;-89
2022/03/22 11:18:29;;;;;;;25.17;19.83;;;28.30;30.00;;;;;;4974227;28;20051;-89
2022/03/22 11:21:00;;;;;;;28.00;19.67;;;28.50;29.70;;;;;;4955363;28;20057;-87
2022/03/22 11:23:29;;;;;;;33.25;20.90;;;28.80;29.70;;;;;;4966142;28;20057;-90
2022/03/22 11:26:20;;;;;;;28.80;19.90;;;28.70;29.00;;;;;;4957378;28;20121;-91
2022/03/22 11:28:50;;;;;;;25.00;19.23;;;28.60;29.70;;;;;;4956938;28;20050;-92
2022/03/22 11:31:21;;;;;;;29.58;22.63;;;28.80;29.60;;;;;;4975639;28;20057;-90
2022/03/22 11:36:47;;;;;;;29.13;19.40;;;29.40;28.60;;;;;;4981741;28;20138;-89
2022/03/22 11:42:15;;;;;;;25.65;18.13;;;29.90;28.50;;;;;;4958560;28;20082;-91
2022/03/22 11:42:21;;;;;;;;;;;30.10;27.50;;;;;;4978000;28;20054;-88
2022/03/22 11:44:58;;;;;;;25.80;18.65;;;29.80;28.70;;;;;;4988781;28;20367;-90
2022/03/22 11:47:25;;;;;;;27.33;19.33;;;29.90;28.60;;;;;;4975386;28;20047;-89
2022/03/22 11:49:57;;;;;;;25.92;18.83;;;30.10;27.70;;;;;;4977643;28;20069;-88
2022/03/22 11:52:40;;;;;;;26.85;18.45;;;30.40;27.00;;;;;;4968955;28;20046;-90
2022/03/22 11:55:08;;;;;;;22.90;19.33;;;30.60;26.60;;;;;;4971013;28;20042;-89
2022/03/22 11:57:51;;;;;;;28.73;18.23;;;30.70;26.50;;;;;;4957310;28;20042;-91
2022/03/22 12:00:19;;;;;;;29.20;18.58;;;31.00;27.20;;;;;;4955382;28;20066;-90
2022/03/22 12:02:52;;;;;;;25.73;18.70;;;31.40;26.20;;;;;;4956985;28;20058;-91
2022/03/22 12:05:18;;;;;;;25.27;18.70;;;31.50;25.60;;;;;;4973990;28;20213;-90
2022/03/22 12:07:46;;;;;;;25.58;18.60;;;31.40;25.60;;;;;;4961261;28;20101;-91
2022/03/22 12:10:14;;;;;;;25.25;18.17;;;31.50;25.20;;;;;;4977129;28;20042;-90
2022/03/22 12:12:43;;;;;;;26.23;18.63;;;31.70;25.40;;;;;;4971402;28;20249;-91
2022/03/22 12:15:15;;;;;;;25.65;19.67;;;32.00;25.80;;;;;;4989730;28;20133;-91
2022/03/22 12:17:41;;;;;;;26.83;19.98;;;32.10;24.40;;;;;;4983132;28;20047;-90
2022/03/22 12:20:11;;;;;;;24.63;18.35;;;32.20;23.70;;;;;;4948838;28;20043;-91
2022/03/22 12:22:45;;;;;;;26.73;18.48;;;32.50;24.00;;;;;;4958746;28;20138;-89
2022/03/22 12:25:17;;;;;;;28.98;19.05;;;32.30;24.00;;;;;;4971544;28;20049;-90
2022/03/22 12:27:59;;;;;;;24.83;18.55;;;31.90;23.10;;;;;;4964227;28;20058;-90
2022/03/22 12:30:27;;;;;;;25.50;19.15;;;31.60;24.50;;;;;;4981313;28;20052;-91
2022/03/22 12:32:56;;;;;;;25.52;18.58;;;31.80;23.80;;;;;;4967583;28;20047;-91
2022/03/22 12:35:22;;;;;;;27.30;19.77;;;32.00;23.70;;;;;;4974523;28;20042;-91
2022/03/22 12:37:52;;;;;;;27.17;19.85;;;32.00;23.50;;;;;;4973798;28;20957;-91
2022/03/22 12:40:24;;;;;;;24.35;17.83;;;31.80;24.00;;;;;;4972807;28;20500;-90
2022/03/22 12:42:51;;;;;;;29.77;19.05;;;31.90;24.30;;;;;;4970812;28;20050;-92
2022/03/22 12:45:18;;;;;;;28.02;19.17;;;32.20;23.90;;;;;;4965244;28;20051;-90
2022/03/22 12:47:45;;;;;;;26.75;18.20;;;32.40;23.60;;;;;;4964180;28;20483;-91
2022/03/22 12:50:13;;;;;;;21.55;17.67;;;32.40;23.20;;;;;;4966327;28;20058;-92
2022/03/22 12:52:40;;;;;;;22.45;16.98;;;32.20;22.90;;;;;;4986548;28;20054;-90
2022/03/22 12:55:08;;;;;;;26.80;17.38;;;32.10;23.60;;;;;;4948842;28;20051;-91
2022/03/22 12:57:34;;;;;;;21.27;16.00;;;32.20;23.30;;;;;;4962863;28;20039;-90
2022/03/22 13:00:02;;;;;;;23.65;15.23;;;32.20;23.20;;;;;;4960505;28;20038;-91
2022/03/22 13:02:27;;;;;;;21.73;15.23;;;31.70;22.40;;;;;;4968202;28;20281;-90
2022/03/22 13:04:56;;;;;;;26.38;16.65;;;31.40;23.00;;;;;;4955375;28;20093;-89
2022/03/22 13:07:23;;;;;;;23.42;14.45;;;31.30;22.90;;;;;;4957526;28;20090;-91
2022/03/22 13:12:43;;;;;;;19.40;13.82;;;32.00;22.60;;;;;;4975518;28;20050;-90
2022/03/22 13:15:16;;;;;;;18.45;14.15;;;32.20;22.20;;;;;;4960827;28;20081;-90
2022/03/22 13:17:48;;;;;;;18.25;14.02;;;32.30;22.90;;;;;;4980072;28;20129;-91
2022/03/22 13:20:22;;;;;;;20.95;14.57;;;32.00;22.50;;;;;;4963567;28;20043;-90
2022/03/22 13:22:56;;;;;;;20.25;13.05;;;32.00;23.10;;;;;;4971029;28;20358;-91
2022/03/22 13:25:32;;;;;;;20.85;14.93;;;32.10;23.10;;;;;;4965445;28;20122;-89
2022/03/22 13:28:04;;;;;;;22.33;14.40;;;32.50;22.90;;;;;;4980319;28;20079;-89
2022/03/22 13:30:31;;;;;;;21.52;14.60;;;32.80;22.70;;;;;;4987134;28;20057;-90